Kailua Kona, HI (96745)

7:14 AM HST on January 18, 2017 (GMT -1000)
Kealakehe High | | Change Station
Active Advisory: Small Craft Advisory

Elev 331 ft 19.67 °N, 156.00 °W | Updated 12 seconds ago

Clear
Clear
69.4 °F
Feels Like 69.4 °F
N
2.7
Wind Variable Wind from ESE
Gusts 4.9 mph

Today
High -- | Low -- °F
--% Chance of Precip.
Yesterday
High -- | Low -- °F
Precip. -- in
Pressure 30.02 in
Visibility 10.0 miles
Clouds Few 5000 ft
Dew Point 60 °F
Humidity 72%
Rainfall 0.00 in
Snow Depth Not available.
7:01 AM 6:08 PM
Waning Gibbous, 62% visible
METAR PHKO 181653Z 11007KT 10SM FEW050 21/17 A3002 RMK AO2 SLP166 T02110167
Pressure 30.02 in
Visibility 10.0 miles
Clouds Few 5000 ft
Dew Point 60 °F
Humidity 72%
Rainfall 0.00 in
Snow Depth Not available.
7:01 AM 6:08 PM
Waning Gibbous, 62% visible
METAR PHKO 181653Z 11007KT 10SM FEW050 21/17 A3002 RMK AO2 SLP166 T02110167

Get Your Daily Forecast Email!

Thanks for signing up!

Be on the lookout for a verification email in your inbox.

You'll start receiving the daily forecast at 8 AM.

×

10-Day Weather Forecast

Almanac

Astronomy

Jan. 18, 2017 Rise Set
Actual Time
Civil Twilight
Nautical Twilight
Astronomical Twilight
Moon
Length of Visible Light
Length of Day
Tomorrow will be .
, % of the Moon is Illuminated

Today's Extremes

State Highs State Lows

Community

WunderPhotos

Upload Photos

1,962,540 photos uploaded!

WunderBlog® & News

Nearby

Air Quality

  Air Quality AQ Index Pollutant
Not available.

Snow Depth

Station Depth Elevation

Earthquake Activity

City Distance Mag. Time & Date
Minimum magnitude displayed is 2.5.

Coastal Water Temperatures

Place Temperature

Stations

Nearby Weather Stations

Station Location Temp. Windchill Dew Point Humidity Wind Precip. Elev Updated Type
                   

Watches & Warnings

Small Craft Advisory
Issued: 3:39 AM HST Jan. 18, 2017 – National Weather Service

... Small Craft Advisory remains in effect until 6 am HST
Thursday...

* winds and seas... east winds 20 to 30 knots today. Seas building
to 10 to 13 feet later today and tonight... mainly in west-
northwest swell.

Precautionary/preparedness actions...

A Small Craft Advisory means that wind speeds of 25 to 33 knots
and/or seas 10 feet or greater are expected to produce conditions
hazardous to small craft. Inexperienced mariners... especially
those operating smaller vessels... should avoid navigating in
these conditions.